Terminal Aerodrome Forecast
Issued by NWS Charleston, WV

Current Version | Previous Version | Text Only | Print | Product List | Glossary Off
Versions: 1 2 3 4 5 6 7 8 9 10 11 12 13 14 15 16 17 18 19 20 21

661
FTUS41 KRLX 030207 AAA
TAFBKW
TAF AMD
KBKW 030207Z 0302/0324 15016G25KT P6SM OVC008
     FM031000 17018G30KT 6SM -SHRA OVC011
     FM031200 17016G29KT 3SM SHRA VCTS OVC015CB
     FM031600 24012G22KT 5SM -SHRA BKN011
     FM032200 24011G19KT 5SM BR SCT014=

USA.gov is the U.S. government's official web portal to all federal, state and local government web resources and services.